sensor_id;sensor_type;location;lat;lon;timestamp;P1;durP1;ratioP1;P2;durP2;ratioP2
10582;SDS011;33679;51.218;6.786;2023-02-22T00:01:26;39.67;;;16.53;;
10582;SDS011;33679;51.218;6.786;2023-02-22T00:04:09;37.03;;;15.80;;
10582;SDS011;33679;51.218;6.786;2023-02-22T00:06:53;30.73;;;16.30;;
10582;SDS011;33679;51.218;6.786;2023-02-22T00:09:39;31.63;;;14.17;;
10582;SDS011;33679;51.218;6.786;2023-02-22T00:12:15;26.13;;;13.90;;
10582;SDS011;33679;51.218;6.786;2023-02-22T00:18:20;29.40;;;13.70;;
10582;SDS011;33679;51.218;6.786;2023-02-22T00:20:54;35.53;;;13.87;;
10582;SDS011;33679;51.218;6.786;2023-02-22T00:23:30;29.40;;;14.90;;
10582;SDS011;33679;51.218;6.786;2023-02-22T00:26:02;29.90;;;14.47;;
10582;SDS011;33679;51.218;6.786;2023-02-22T00:28:35;36.57;;;14.47;;
10582;SDS011;33679;51.218;6.786;2023-02-22T00:31:08;33.07;;;14.40;;
10582;SDS011;33679;51.218;6.786;2023-02-22T00:33:45;34.53;;;14.90;;
10582;SDS011;33679;51.218;6.786;2023-02-22T00:36:19;32.20;;;14.43;;
10582;SDS011;33679;51.218;6.786;2023-02-22T00:38:52;38.93;;;15.83;;
10582;SDS011;33679;51.218;6.786;2023-02-22T00:41:25;34.77;;;15.03;;
10582;SDS011;33679;51.218;6.786;2023-02-22T00:44:02;33.43;;;14.30;;
10582;SDS011;33679;51.218;6.786;2023-02-22T00:46:35;26.80;;;12.93;;
10582;SDS011;33679;51.218;6.786;2023-02-22T00:49:08;27.03;;;13.50;;
10582;SDS011;33679;51.218;6.786;2023-02-22T00:51:42;27.73;;;13.37;;
10582;SDS011;33679;51.218;6.786;2023-02-22T00:54:15;27.23;;;12.90;;
10582;SDS011;33679;51.218;6.786;2023-02-22T00:56:49;32.13;;;13.30;;
10582;SDS011;33679;51.218;6.786;2023-02-22T00:59:25;32.33;;;13.70;;
10582;SDS011;33679;51.218;6.786;2023-02-22T01:02:00;31.57;;;12.70;;
10582;SDS011;33679;51.218;6.786;2023-02-22T01:04:33;27.70;;;12.13;;
10582;SDS011;33679;51.218;6.786;2023-02-22T01:07:09;28.40;;;12.77;;
10582;SDS011;33679;51.218;6.786;2023-02-22T01:09:42;31.60;;;12.57;;
10582;SDS011;33679;51.218;6.786;2023-02-22T01:12:15;38.80;;;15.80;;
10582;SDS011;33679;51.218;6.786;2023-02-22T01:15:01;31.97;;;13.27;;
10582;SDS011;33679;51.218;6.786;2023-02-22T01:17:40;26.73;;;13.00;;
10582;SDS011;33679;51.218;6.786;2023-02-22T01:20:15;35.63;;;14.30;;
10582;SDS011;33679;51.218;6.786;2023-02-22T01:22:57;33.60;;;13.10;;
10582;SDS011;33679;51.218;6.786;2023-02-22T01:25:33;27.47;;;12.97;;
10582;SDS011;33679;51.218;6.786;2023-02-22T01:28:12;31.63;;;14.20;;
10582;SDS011;33679;51.218;6.786;2023-02-22T01:30:50;24.40;;;11.87;;
10582;SDS011;33679;51.218;6.786;2023-02-22T01:33:31;27.50;;;13.10;;
10582;SDS011;33679;51.218;6.786;2023-02-22T01:36:10;26.37;;;12.60;;
10582;SDS011;33679;51.218;6.786;2023-02-22T01:38:44;27.80;;;11.80;;
10582;SDS011;33679;51.218;6.786;2023-02-22T01:41:19;24.80;;;11.53;;
10582;SDS011;33679;51.218;6.786;2023-02-22T01:43:55;24.77;;;11.53;;
10582;SDS011;33679;51.218;6.786;2023-02-22T01:46:32;26.93;;;11.33;;
10582;SDS011;33679;51.218;6.786;2023-02-22T01:49:05;25.33;;;10.70;;
10582;SDS011;33679;51.218;6.786;2023-02-22T01:51:41;24.57;;;11.23;;
10582;SDS011;33679;51.218;6.786;2023-02-22T01:54:17;27.37;;;11.70;;
10582;SDS011;33679;51.218;6.786;2023-02-22T01:56:56;26.73;;;11.40;;
10582;SDS011;33679;51.218;6.786;2023-02-22T01:59:36;28.93;;;11.37;;
10582;SDS011;33679;51.218;6.786;2023-02-22T02:02:17;24.37;;;10.93;;
10582;SDS011;33679;51.218;6.786;2023-02-22T02:04:51;22.37;;;10.43;;
10582;SDS011;33679;51.218;6.786;2023-02-22T02:07:33;23.30;;;11.20;;
10582;SDS011;33679;51.218;6.786;2023-02-22T02:10:08;24.57;;;10.90;;
10582;SDS011;33679;51.218;6.786;2023-02-22T02:12:45;29.77;;;12.27;;
10582;SDS011;33679;51.218;6.786;2023-02-22T02:15:22;29.07;;;12.70;;
10582;SDS011;33679;51.218;6.786;2023-02-22T02:18:03;22.53;;;10.83;;
10582;SDS011;33679;51.218;6.786;2023-02-22T02:20:38;20.90;;;10.00;;
10582;SDS011;33679;51.218;6.786;2023-02-22T02:23:30;25.70;;;12.00;;
10582;SDS011;33679;51.218;6.786;2023-02-22T02:32:52;32.40;;;12.23;;
10582;SDS011;33679;51.218;6.786;2023-02-22T02:35:32;30.70;;;12.00;;
10582;SDS011;33679;51.218;6.786;2023-02-22T02:38:33;30.20;;;11.90;;
10582;SDS011;33679;51.218;6.786;2023-02-22T02:41:21;27.67;;;12.13;;
10582;SDS011;33679;51.218;6.786;2023-02-22T02:44:04;32.27;;;12.27;;
10582;SDS011;33679;51.218;6.786;2023-02-22T02:46:58;29.53;;;12.00;;
10582;SDS011;33679;51.218;6.786;2023-02-22T02:49:39;33.47;;;12.83;;
10582;SDS011;33679;51.218;6.786;2023-02-22T02:52:18;32.20;;;12.47;;
10582;SDS011;33679;51.218;6.786;2023-02-22T02:54:55;34.53;;;11.90;;
10582;SDS011;33679;51.218;6.786;2023-02-22T02:57:48;30.10;;;13.17;;
10582;SDS011;33679;51.218;6.786;2023-02-22T03:00:36;28.93;;;11.97;;
10582;SDS011;33679;51.218;6.786;2023-02-22T03:03:39;36.43;;;14.03;;
10582;SDS011;33679;51.218;6.786;2023-02-22T03:06:37;29.73;;;11.77;;
10582;SDS011;33679;51.218;6.786;2023-02-22T03:09:34;36.20;;;12.67;;
10582;SDS011;33679;51.218;6.786;2023-02-22T03:12:14;31.93;;;12.03;;
10582;SDS011;33679;51.218;6.786;2023-02-22T03:15:01;36.10;;;13.90;;
10582;SDS011;33679;51.218;6.786;2023-02-22T03:17:45;31.53;;;14.13;;
10582;SDS011;33679;51.218;6.786;2023-02-22T03:20:33;32.03;;;12.63;;
10582;SDS011;33679;51.218;6.786;2023-02-22T03:23:19;29.00;;;11.70;;
10582;SDS011;33679;51.218;6.786;2023-02-22T03:26:12;31.53;;;12.83;;
10582;SDS011;33679;51.218;6.786;2023-02-22T03:28:52;26.73;;;12.93;;
10582;SDS011;33679;51.218;6.786;2023-02-22T03:31:27;29.83;;;11.80;;
10582;SDS011;33679;51.218;6.786;2023-02-22T03:34:14;29.20;;;12.40;;
10582;SDS011;33679;51.218;6.786;2023-02-22T03:36:51;22.60;;;11.00;;
10582;SDS011;33679;51.218;6.786;2023-02-22T03:39:33;28.70;;;11.80;;
10582;SDS011;33679;51.218;6.786;2023-02-22T03:42:08;25.57;;;11.10;;
10582;SDS011;33679;51.218;6.786;2023-02-22T03:44:46;28.30;;;11.23;;
10582;SDS011;33679;51.218;6.786;2023-02-22T03:47:25;26.37;;;11.33;;
10582;SDS011;33679;51.218;6.786;2023-02-22T03:50:06;25.83;;;11.23;;
10582;SDS011;33679;51.218;6.786;2023-02-22T03:52:51;33.33;;;12.20;;
10582;SDS011;33679;51.218;6.786;2023-02-22T03:55:30;29.73;;;12.50;;
10582;SDS011;33679;51.218;6.786;2023-02-22T03:58:04;31.33;;;12.60;;
10582;SDS011;33679;51.218;6.786;2023-02-22T04:00:41;30.57;;;13.07;;
10582;SDS011;33679;51.218;6.786;2023-02-22T04:03:14;29.60;;;13.37;;
10582;SDS011;33679;51.218;6.786;2023-02-22T04:05:47;33.30;;;13.23;;
10582;SDS011;33679;51.218;6.786;2023-02-22T04:08:21;30.20;;;14.17;;
10582;SDS011;33679;51.218;6.786;2023-02-22T04:10:56;35.70;;;13.57;;
10582;SDS011;33679;51.218;6.786;2023-02-22T04:13:42;31.70;;;14.20;;
10582;SDS011;33679;51.218;6.786;2023-02-22T04:16:25;31.33;;;14.80;;
10582;SDS011;33679;51.218;6.786;2023-02-22T04:19:10;46.27;;;16.47;;
10582;SDS011;33679;51.218;6.786;2023-02-22T04:21:43;29.17;;;12.90;;
10582;SDS011;33679;51.218;6.786;2023-02-22T04:24:23;32.97;;;15.33;;
10582;SDS011;33679;51.218;6.786;2023-02-22T04:26:59;38.27;;;15.00;;
10582;SDS011;33679;51.218;6.786;2023-02-22T04:29:32;33.10;;;14.93;;
10582;SDS011;33679;51.218;6.786;2023-02-22T04:32:05;33.10;;;14.60;;
10582;SDS011;33679;51.218;6.786;2023-02-22T04:34:38;39.13;;;14.70;;
10582;SDS011;33679;51.218;6.786;2023-02-22T04:37:10;34.23;;;14.90;;
10582;SDS011;33679;51.218;6.786;2023-02-22T04:39:44;29.37;;;13.37;;
10582;SDS011;33679;51.218;6.786;2023-02-22T04:42:18;37.50;;;14.80;;
10582;SDS011;33679;51.218;6.786;2023-02-22T04:44:50;39.53;;;13.67;;
10582;SDS011;33679;51.218;6.786;2023-02-22T04:47:26;35.23;;;16.03;;
10582;SDS011;33679;51.218;6.786;2023-02-22T04:49:58;30.50;;;14.43;;
10582;SDS011;33679;51.218;6.786;2023-02-22T04:52:33;34.73;;;13.30;;
10582;SDS011;33679;51.218;6.786;2023-02-22T04:55:06;29.53;;;13.20;;
10582;SDS011;33679;51.218;6.786;2023-02-22T04:57:42;33.90;;;14.73;;
10582;SDS011;33679;51.218;6.786;2023-02-22T05:00:15;35.43;;;14.27;;
10582;SDS011;33679;51.218;6.786;2023-02-22T05:02:51;32.00;;;14.60;;
10582;SDS011;33679;51.218;6.786;2023-02-22T05:05:24;35.43;;;15.47;;
10582;SDS011;33679;51.218;6.786;2023-02-22T05:07:57;30.97;;;14.03;;
10582;SDS011;33679;51.218;6.786;2023-02-22T05:10:35;38.30;;;15.33;;
10582;SDS011;33679;51.218;6.786;2023-02-22T05:13:09;32.63;;;15.90;;
10582;SDS011;33679;51.218;6.786;2023-02-22T05:15:42;31.57;;;15.53;;
10582;SDS011;33679;51.218;6.786;2023-02-22T05:18:14;37.60;;;16.20;;
10582;SDS011;33679;51.218;6.786;2023-02-22T05:20:47;29.37;;;13.70;;
10582;SDS011;33679;51.218;6.786;2023-02-22T05:23:20;28.70;;;13.97;;
10582;SDS011;33679;51.218;6.786;2023-02-22T05:25:52;25.10;;;12.33;;
10582;SDS011;33679;51.218;6.786;2023-02-22T05:28:26;30.07;;;12.90;;
10582;SDS011;33679;51.218;6.786;2023-02-22T05:31:01;26.87;;;11.87;;
10582;SDS011;33679;51.218;6.786;2023-02-22T05:33:36;22.07;;;11.40;;
10582;SDS011;33679;51.218;6.786;2023-02-22T05:44:38;24.00;;;11.57;;
10582;SDS011;33679;51.218;6.786;2023-02-22T05:47:13;28.97;;;12.67;;
10582;SDS011;33679;51.218;6.786;2023-02-22T05:49:48;22.60;;;12.00;;
10582;SDS011;33679;51.218;6.786;2023-02-22T05:52:17;24.37;;;12.50;;
10582;SDS011;33679;51.218;6.786;2023-02-22T05:54:50;25.73;;;13.10;;
10582;SDS011;33679;51.218;6.786;2023-02-22T05:57:25;24.00;;;12.10;;
10582;SDS011;33679;51.218;6.786;2023-02-22T05:59:59;26.30;;;13.70;;
10582;SDS011;33679;51.218;6.786;2023-02-22T06:02:55;29.77;;;13.57;;
10582;SDS011;33679;51.218;6.786;2023-02-22T06:05:32;26.57;;;12.90;;
10582;SDS011;33679;51.218;6.786;2023-02-22T06:08:07;30.67;;;13.97;;
10582;SDS011;33679;51.218;6.786;2023-02-22T06:10:47;25.10;;;12.97;;
10582;SDS011;33679;51.218;6.786;2023-02-22T06:13:22;29.07;;;13.50;;
10582;SDS011;33679;51.218;6.786;2023-02-22T06:15:56;29.03;;;13.63;;
10582;SDS011;33679;51.218;6.786;2023-02-22T06:18:29;28.07;;;11.57;;
10582;SDS011;33679;51.218;6.786;2023-02-22T06:21:02;29.27;;;12.60;;
10582;SDS011;33679;51.218;6.786;2023-02-22T06:23:35;26.07;;;12.00;;
10582;SDS011;33679;51.218;6.786;2023-02-22T06:26:07;26.70;;;13.00;;
10582;SDS011;33679;51.218;6.786;2023-02-22T06:28:40;21.13;;;12.17;;
10582;SDS011;33679;51.218;6.786;2023-02-22T06:31:14;26.27;;;11.70;;
10582;SDS011;33679;51.218;6.786;2023-02-22T06:33:46;20.20;;;11.50;;
10582;SDS011;33679;51.218;6.786;2023-02-22T06:36:19;25.07;;;11.27;;
10582;SDS011;33679;51.218;6.786;2023-02-22T06:38:52;23.10;;;11.63;;
10582;SDS011;33679;51.218;6.786;2023-02-22T06:41:26;21.13;;;10.43;;
10582;SDS011;33679;51.218;6.786;2023-02-22T06:43:59;23.80;;;10.77;;
10582;SDS011;33679;51.218;6.786;2023-02-22T06:46:33;23.23;;;11.40;;
10582;SDS011;33679;51.218;6.786;2023-02-22T06:49:06;20.20;;;10.30;;
10582;SDS011;33679;51.218;6.786;2023-02-22T06:51:38;21.17;;;12.23;;
10582;SDS011;33679;51.218;6.786;2023-02-22T06:54:11;21.03;;;10.40;;
10582;SDS011;33679;51.218;6.786;2023-02-22T06:56:47;23.43;;;10.70;;
10582;SDS011;33679;51.218;6.786;2023-02-22T06:59:22;20.17;;;10.80;;
10582;SDS011;33679;51.218;6.786;2023-02-22T07:01:57;23.17;;;12.30;;
10582;SDS011;33679;51.218;6.786;2023-02-22T07:04:34;22.40;;;10.80;;
10582;SDS011;33679;51.218;6.786;2023-02-22T07:07:10;18.93;;;10.47;;
10582;SDS011;33679;51.218;6.786;2023-02-22T07:09:46;19.33;;;11.20;;
10582;SDS011;33679;51.218;6.786;2023-02-22T07:12:19;21.83;;;11.83;;
10582;SDS011;33679;51.218;6.786;2023-02-22T07:14:53;14.73;;;9.30;;
10582;SDS011;33679;51.218;6.786;2023-02-22T07:17:27;22.10;;;10.90;;
10582;SDS011;33679;51.218;6.786;2023-02-22T07:20:00;23.63;;;12.00;;
10582;SDS011;33679;51.218;6.786;2023-02-22T07:22:33;18.93;;;10.57;;
10582;SDS011;33679;51.218;6.786;2023-02-22T07:25:09;20.97;;;10.93;;
10582;SDS011;33679;51.218;6.786;2023-02-22T07:27:42;19.40;;;12.33;;
10582;SDS011;33679;51.218;6.786;2023-02-22T07:30:16;23.83;;;12.53;;
10582;SDS011;33679;51.218;6.786;2023-02-22T07:32:56;22.80;;;11.67;;
10582;SDS011;33679;51.218;6.786;2023-02-22T07:35:31;37.37;;;22.10;;
10582;SDS011;33679;51.218;6.786;2023-02-22T07:38:08;32.30;;;15.90;;
10582;SDS011;33679;51.218;6.786;2023-02-22T07:40:41;21.70;;;13.50;;
10582;SDS011;33679;51.218;6.786;2023-02-22T07:43:15;25.60;;;13.80;;
10582;SDS011;33679;51.218;6.786;2023-02-22T07:45:51;29.70;;;13.07;;
10582;SDS011;33679;51.218;6.786;2023-02-22T07:48:30;19.50;;;12.07;;
10582;SDS011;33679;51.218;6.786;2023-02-22T07:51:05;27.50;;;13.23;;
10582;SDS011;33679;51.218;6.786;2023-02-22T07:53:39;22.67;;;12.20;;
10582;SDS011;33679;51.218;6.786;2023-02-22T07:56:12;21.20;;;11.67;;
10582;SDS011;33679;51.218;6.786;2023-02-22T07:58:45;23.80;;;12.90;;
10582;SDS011;33679;51.218;6.786;2023-02-22T08:01:17;20.90;;;11.90;;
10582;SDS011;33679;51.218;6.786;2023-02-22T08:03:51;30.47;;;16.77;;
10582;SDS011;33679;51.218;6.786;2023-02-22T08:06:25;22.27;;;12.60;;
10582;SDS011;33679;51.218;6.786;2023-02-22T08:09:00;18.90;;;10.57;;
10582;SDS011;33679;51.218;6.786;2023-02-22T08:11:32;15.87;;;9.40;;
10582;SDS011;33679;51.218;6.786;2023-02-22T08:14:05;24.90;;;11.83;;
10582;SDS011;33679;51.218;6.786;2023-02-22T08:16:38;19.10;;;10.37;;
10582;SDS011;33679;51.218;6.786;2023-02-22T08:19:13;19.80;;;10.47;;
10582;SDS011;33679;51.218;6.786;2023-02-22T08:21:46;24.40;;;15.00;;
10582;SDS011;33679;51.218;6.786;2023-02-22T08:24:21;22.00;;;12.20;;
10582;SDS011;33679;51.218;6.786;2023-02-22T08:26:53;19.33;;;10.70;;
10582;SDS011;33679;51.218;6.786;2023-02-22T08:29:26;16.77;;;10.57;;
10582;SDS011;33679;51.218;6.786;2023-02-22T08:32:03;16.10;;;9.77;;
10582;SDS011;33679;51.218;6.786;2023-02-22T08:34:39;17.77;;;9.73;;
10582;SDS011;33679;51.218;6.786;2023-02-22T08:37:13;16.40;;;9.83;;
10582;SDS011;33679;51.218;6.786;2023-02-22T08:39:46;22.87;;;12.30;;
10582;SDS011;33679;51.218;6.786;2023-02-22T08:42:18;17.00;;;10.40;;
10582;SDS011;33679;51.218;6.786;2023-02-22T08:44:51;17.07;;;10.20;;
10582;SDS011;33679;51.218;6.786;2023-02-22T08:47:28;16.83;;;9.70;;
10582;SDS011;33679;51.218;6.786;2023-02-22T08:50:13;18.30;;;10.33;;
10582;SDS011;33679;51.218;6.786;2023-02-22T08:53:00;14.47;;;9.00;;
10582;SDS011;33679;51.218;6.786;2023-02-22T08:55:38;22.40;;;10.77;;
10582;SDS011;33679;51.218;6.786;2023-02-22T08:58:14;15.07;;;9.20;;
10582;SDS011;33679;51.218;6.786;2023-02-22T09:00:57;15.87;;;9.90;;
10582;SDS011;33679;51.218;6.786;2023-02-22T09:03:41;15.33;;;10.10;;
10582;SDS011;33679;51.218;6.786;2023-02-22T09:06:18;15.03;;;9.50;;
10582;SDS011;33679;51.218;6.786;2023-02-22T09:08:51;14.97;;;9.30;;
10582;SDS011;33679;51.218;6.786;2023-02-22T09:11:25;17.30;;;9.20;;
10582;SDS011;33679;51.218;6.786;2023-02-22T09:13:58;15.33;;;8.80;;
10582;SDS011;33679;51.218;6.786;2023-02-22T09:16:32;14.23;;;9.37;;
10582;SDS011;33679;51.218;6.786;2023-02-22T09:19:12;15.40;;;9.83;;
10582;SDS011;33679;51.218;6.786;2023-02-22T09:21:50;17.07;;;9.90;;
10582;SDS011;33679;51.218;6.786;2023-02-22T09:24:27;17.03;;;9.60;;
10582;SDS011;33679;51.218;6.786;2023-02-22T09:27:00;17.40;;;10.00;;
10582;SDS011;33679;51.218;6.786;2023-02-22T09:29:34;15.23;;;8.73;;
10582;SDS011;33679;51.218;6.786;2023-02-22T09:32:06;16.60;;;9.07;;
10582;SDS011;33679;51.218;6.786;2023-02-22T09:34:39;20.57;;;9.23;;
10582;SDS011;33679;51.218;6.786;2023-02-22T09:37:16;18.23;;;10.40;;
10582;SDS011;33679;51.218;6.786;2023-02-22T09:39:49;19.90;;;11.27;;
10582;SDS011;33679;51.218;6.786;2023-02-22T09:42:23;17.00;;;9.73;;
10582;SDS011;33679;51.218;6.786;2023-02-22T09:45:05;19.30;;;9.60;;
10582;SDS011;33679;51.218;6.786;2023-02-22T09:47:43;20.47;;;11.67;;
10582;SDS011;33679;51.218;6.786;2023-02-22T09:50:21;16.43;;;10.17;;
10582;SDS011;33679;51.218;6.786;2023-02-22T09:53:01;19.53;;;10.57;;
10582;SDS011;33679;51.218;6.786;2023-02-22T09:55:37;14.27;;;9.67;;
10582;SDS011;33679;51.218;6.786;2023-02-22T09:58:15;22.00;;;11.67;;
10582;SDS011;33679;51.218;6.786;2023-02-22T10:00:54;20.50;;;11.77;;
10582;SDS011;33679;51.218;6.786;2023-02-22T10:03:35;20.07;;;10.60;;
10582;SDS011;33679;51.218;6.786;2023-02-22T10:06:19;20.97;;;11.73;;
10582;SDS011;33679;51.218;6.786;2023-02-22T10:08:56;18.60;;;10.57;;
10582;SDS011;33679;51.218;6.786;2023-02-22T10:12:01;15.70;;;10.23;;
10582;SDS011;33679;51.218;6.786;2023-02-22T10:14:49;19.10;;;10.13;;
10582;SDS011;33679;51.218;6.786;2023-02-22T10:17:45;15.53;;;9.70;;
10582;SDS011;33679;51.218;6.786;2023-02-22T10:20:34;15.20;;;9.57;;
10582;SDS011;33679;51.218;6.786;2023-02-22T10:23:44;17.97;;;10.47;;
10582;SDS011;33679;51.218;6.786;2023-02-22T10:26:28;17.10;;;10.87;;
10582;SDS011;33679;51.218;6.786;2023-02-22T10:29:09;15.53;;;9.97;;
10582;SDS011;33679;51.218;6.786;2023-02-22T10:31:56;14.83;;;8.97;;
10582;SDS011;33679;51.218;6.786;2023-02-22T10:34:36;18.07;;;9.57;;
10582;SDS011;33679;51.218;6.786;2023-02-22T10:37:15;17.80;;;9.87;;
10582;SDS011;33679;51.218;6.786;2023-02-22T10:40:10;12.07;;;8.13;;
10582;SDS011;33679;51.218;6.786;2023-02-22T10:43:07;13.70;;;9.20;;
10582;SDS011;33679;51.218;6.786;2023-02-22T10:46:00;15.57;;;9.80;;
10582;SDS011;33679;51.218;6.786;2023-02-22T10:48:53;14.10;;;9.10;;
10582;SDS011;33679;51.218;6.786;2023-02-22T10:51:37;14.07;;;8.40;;
10582;SDS011;33679;51.218;6.786;2023-02-22T10:54:26;12.93;;;8.73;;
10582;SDS011;33679;51.218;6.786;2023-02-22T10:57:09;13.53;;;8.27;;
10582;SDS011;33679;51.218;6.786;2023-02-22T11:00:15;13.60;;;7.80;;
10582;SDS011;33679;51.218;6.786;2023-02-22T11:03:14;16.33;;;8.03;;
10582;SDS011;33679;51.218;6.786;2023-02-22T11:05:49;15.03;;;9.37;;
10582;SDS011;33679;51.218;6.786;2023-02-22T11:08:29;11.00;;;6.73;;
10582;SDS011;33679;51.218;6.786;2023-02-22T11:11:19;13.50;;;6.93;;
10582;SDS011;33679;51.218;6.786;2023-02-22T11:18:22;12.23;;;6.73;;
10582;SDS011;33679;51.218;6.786;2023-02-22T11:21:00;12.60;;;8.10;;
10582;SDS011;33679;51.218;6.786;2023-02-22T11:23:39;16.00;;;8.93;;
10582;SDS011;33679;51.218;6.786;2023-02-22T11:26:16;15.53;;;7.70;;
10582;SDS011;33679;51.218;6.786;2023-02-22T11:28:50;12.80;;;8.90;;
10582;SDS011;33679;51.218;6.786;2023-02-22T11:31:33;10.20;;;7.13;;
10582;SDS011;33679;51.218;6.786;2023-02-22T11:34:27;13.87;;;7.93;;
10582;SDS011;33679;51.218;6.786;2023-02-22T11:37:40;12.80;;;7.77;;
10582;SDS011;33679;51.218;6.786;2023-02-22T11:40:13;11.07;;;6.60;;
10582;SDS011;33679;51.218;6.786;2023-02-22T11:43:05;14.10;;;8.53;;
10582;SDS011;33679;51.218;6.786;2023-02-22T11:45:54;12.40;;;7.63;;
10582;SDS011;33679;51.218;6.786;2023-02-22T11:48:34;14.50;;;8.07;;
10582;SDS011;33679;51.218;6.786;2023-02-22T11:51:25;13.37;;;7.57;;
10582;SDS011;33679;51.218;6.786;2023-02-22T11:54:13;14.87;;;8.67;;
10582;SDS011;33679;51.218;6.786;2023-02-22T12:00:13;18.20;;;11.40;;
10582;SDS011;33679;51.218;6.786;2023-02-22T12:03:00;14.13;;;7.30;;
10582;SDS011;33679;51.218;6.786;2023-02-22T12:06:03;15.20;;;7.50;;
10582;SDS011;33679;51.218;6.786;2023-02-22T12:09:00;13.23;;;7.67;;
10582;SDS011;33679;51.218;6.786;2023-02-22T12:11:42;12.50;;;7.57;;
10582;SDS011;33679;51.218;6.786;2023-02-22T12:14:37;16.83;;;8.63;;
10582;SDS011;33679;51.218;6.786;2023-02-22T12:17:36;12.10;;;7.97;;
10582;SDS011;33679;51.218;6.786;2023-02-22T12:20:22;13.77;;;7.53;;
10582;SDS011;33679;51.218;6.786;2023-02-22T12:23:04;12.93;;;7.70;;
10582;SDS011;33679;51.218;6.786;2023-02-22T12:25:57;11.90;;;7.23;;
10582;SDS011;33679;51.218;6.786;2023-02-22T12:28:35;15.43;;;8.57;;
10582;SDS011;33679;51.218;6.786;2023-02-22T12:31:17;14.53;;;7.80;;
10582;SDS011;33679;51.218;6.786;2023-02-22T12:33:58;11.43;;;7.00;;
10582;SDS011;33679;51.218;6.786;2023-02-22T12:36:44;12.33;;;7.00;;
10582;SDS011;33679;51.218;6.786;2023-02-22T12:39:25;10.93;;;6.90;;
10582;SDS011;33679;51.218;6.786;2023-02-22T12:42:23;13.30;;;7.80;;
10582;SDS011;33679;51.218;6.786;2023-02-22T12:45:10;12.90;;;8.00;;
10582;SDS011;33679;51.218;6.786;2023-02-22T12:47:50;11.73;;;8.00;;
10582;SDS011;33679;51.218;6.786;2023-02-22T12:50:35;10.13;;;6.40;;
10582;SDS011;33679;51.218;6.786;2023-02-22T12:53:11;9.20;;;6.37;;
10582;SDS011;33679;51.218;6.786;2023-02-22T12:55:51;9.60;;;6.63;;
10582;SDS011;33679;51.218;6.786;2023-02-22T12:58:34;9.40;;;6.00;;
10582;SDS011;33679;51.218;6.786;2023-02-22T13:01:12;12.80;;;7.13;;
10582;SDS011;33679;51.218;6.786;2023-02-22T13:03:52;11.47;;;6.53;;
10582;SDS011;33679;51.218;6.786;2023-02-22T13:10:02;13.10;;;7.67;;
10582;SDS011;33679;51.218;6.786;2023-02-22T13:12:58;10.00;;;6.03;;
10582;SDS011;33679;51.218;6.786;2023-02-22T13:15:44;13.97;;;7.10;;
10582;SDS011;33679;51.218;6.786;2023-02-22T13:18:25;13.00;;;7.10;;
10582;SDS011;33679;51.218;6.786;2023-02-22T13:21:26;10.20;;;6.07;;
10582;SDS011;33679;51.218;6.786;2023-02-22T13:25:02;9.87;;;5.77;;
10582;SDS011;33679;51.218;6.786;2023-02-22T13:31:12;10.00;;;6.80;;
10582;SDS011;33679;51.218;6.786;2023-02-22T13:34:26;12.17;;;7.03;;
10582;SDS011;33679;51.218;6.786;2023-02-22T13:37:22;9.70;;;5.87;;
10582;SDS011;33679;51.218;6.786;2023-02-22T13:43:51;12.30;;;7.40;;
10582;SDS011;33679;51.218;6.786;2023-02-22T13:50:16;10.27;;;6.20;;
10582;SDS011;33679;51.218;6.786;2023-02-22T13:53:10;10.90;;;6.90;;
10582;SDS011;33679;51.218;6.786;2023-02-22T13:55:51;12.73;;;6.47;;
10582;SDS011;33679;51.218;6.786;2023-02-22T13:58:28;10.70;;;6.30;;
10582;SDS011;33679;51.218;6.786;2023-02-22T14:01:01;10.37;;;7.20;;
10582;SDS011;33679;51.218;6.786;2023-02-22T14:03:35;12.27;;;6.10;;
10582;SDS011;33679;51.218;6.786;2023-02-22T14:06:11;10.87;;;6.17;;
10582;SDS011;33679;51.218;6.786;2023-02-22T14:09:15;15.43;;;9.20;;
10582;SDS011;33679;51.218;6.786;2023-02-22T14:12:05;12.57;;;7.07;;
10582;SDS011;33679;51.218;6.786;2023-02-22T14:14:39;11.97;;;6.40;;
10582;SDS011;33679;51.218;6.786;2023-02-22T14:17:44;11.60;;;6.67;;
10582;SDS011;33679;51.218;6.786;2023-02-22T14:26:12;15.83;;;7.63;;
10582;SDS011;33679;51.218;6.786;2023-02-22T14:28:49;12.57;;;6.53;;
10582;SDS011;33679;51.218;6.786;2023-02-22T14:31:24;11.27;;;6.33;;
10582;SDS011;33679;51.218;6.786;2023-02-22T14:34:03;14.00;;;7.90;;
10582;SDS011;33679;51.218;6.786;2023-02-22T14:36:43;14.63;;;7.40;;
10582;SDS011;33679;51.218;6.786;2023-02-22T14:39:26;12.30;;;7.57;;
10582;SDS011;33679;51.218;6.786;2023-02-22T14:42:10;12.07;;;6.70;;
10582;SDS011;33679;51.218;6.786;2023-02-22T14:44:56;12.03;;;7.20;;
10582;SDS011;33679;51.218;6.786;2023-02-22T14:47:35;14.37;;;8.20;;
10582;SDS011;33679;51.218;6.786;2023-02-22T14:50:15;15.73;;;9.57;;
10582;SDS011;33679;51.218;6.786;2023-02-22T14:52:54;10.83;;;7.23;;
10582;SDS011;33679;51.218;6.786;2023-02-22T14:55:36;11.27;;;7.00;;
10582;SDS011;33679;51.218;6.786;2023-02-22T14:58:14;9.43;;;6.30;;
10582;SDS011;33679;51.218;6.786;2023-02-22T15:00:52;10.63;;;7.07;;
10582;SDS011;33679;51.218;6.786;2023-02-22T15:03:28;8.97;;;5.87;;
10582;SDS011;33679;51.218;6.786;2023-02-22T15:06:11;9.37;;;5.77;;
10582;SDS011;33679;51.218;6.786;2023-02-22T15:09:03;8.33;;;6.30;;
10582;SDS011;33679;51.218;6.786;2023-02-22T15:11:39;10.27;;;6.63;;
10582;SDS011;33679;51.218;6.786;2023-02-22T15:14:18;10.57;;;7.50;;
10582;SDS011;33679;51.218;6.786;2023-02-22T15:16:53;8.80;;;6.40;;
10582;SDS011;33679;51.218;6.786;2023-02-22T15:19:29;21.77;;;12.50;;
10582;SDS011;33679;51.218;6.786;2023-02-22T15:22:04;13.03;;;7.77;;
10582;SDS011;33679;51.218;6.786;2023-02-22T15:24:39;11.50;;;7.47;;
10582;SDS011;33679;51.218;6.786;2023-02-22T15:27:14;9.67;;;6.23;;
10582;SDS011;33679;51.218;6.786;2023-02-22T15:29:55;11.93;;;6.87;;
10582;SDS011;33679;51.218;6.786;2023-02-22T15:32:29;10.17;;;7.03;;
10582;SDS011;33679;51.218;6.786;2023-02-22T15:35:12;12.50;;;7.20;;
10582;SDS011;33679;51.218;6.786;2023-02-22T15:37:57;11.57;;;7.10;;
10582;SDS011;33679;51.218;6.786;2023-02-22T15:40:32;11.33;;;6.80;;
10582;SDS011;33679;51.218;6.786;2023-02-22T15:43:16;10.17;;;6.10;;
10582;SDS011;33679;51.218;6.786;2023-02-22T15:45:53;13.07;;;7.10;;
10582;SDS011;33679;51.218;6.786;2023-02-22T15:48:27;14.33;;;7.20;;
10582;SDS011;33679;51.218;6.786;2023-02-22T15:51:05;11.27;;;8.40;;
10582;SDS011;33679;51.218;6.786;2023-02-22T15:53:41;17.10;;;10.80;;
10582;SDS011;33679;51.218;6.786;2023-02-22T15:56:17;19.87;;;9.97;;
10582;SDS011;33679;51.218;6.786;2023-02-22T15:59:01;8.40;;;6.40;;
10582;SDS011;33679;51.218;6.786;2023-02-22T16:01:39;11.70;;;6.93;;
10582;SDS011;33679;51.218;6.786;2023-02-22T16:04:15;8.43;;;5.80;;
10582;SDS011;33679;51.218;6.786;2023-02-22T16:06:49;10.80;;;7.20;;
10582;SDS011;33679;51.218;6.786;2023-02-22T16:09:25;13.70;;;8.10;;
10582;SDS011;33679;51.218;6.786;2023-02-22T16:12:09;11.67;;;7.60;;
10582;SDS011;33679;51.218;6.786;2023-02-22T16:15:02;12.10;;;6.97;;
10582;SDS011;33679;51.218;6.786;2023-02-22T16:17:47;57.00;;;33.80;;
10582;SDS011;33679;51.218;6.786;2023-02-22T16:20:30;15.30;;;10.20;;
10582;SDS011;33679;51.218;6.786;2023-02-22T16:23:24;12.57;;;7.47;;
10582;SDS011;33679;51.218;6.786;2023-02-22T16:26:06;9.43;;;7.47;;
10582;SDS011;33679;51.218;6.786;2023-02-22T16:28:53;10.80;;;7.03;;